Terminal Aerodrome Forecast
Issued by NWS

Home | Current Version | Previous Version | Text Only | Print | Product List | Glossary On
Versions: 1 2 3 4 5 6 7 8 9 10 11 12 13 14 15 16 17 18 19 20 21 22 23 24 25 26 27 28 29
332
FTUS41 KPBZ 291145 AAA
TAFFKL
TAF AMD
KFKL 291145Z 2912/3012 02006KT P6SM SCT015
      TEMPO 2912/2913 BKN015
     FM291500 02005KT P6SM SCT025
     FM300500 07006KT P6SM BKN120
     FM301100 09007KT P6SM OVC080
      AMD LTD TO CLD VIS AND WIND=

USA.gov is the U.S. government's official web portal to all federal, state and local government web resources and services.